createdAt,value
2018-08-10T00:00:00.390Z,19.10
2018-08-10T00:01:00.442Z,19.01
2018-08-10T00:02:00.502Z,18.99
2018-08-10T00:03:00.527Z,18.95
2018-08-10T00:04:00.575Z,18.94
2018-08-10T00:05:00.614Z,18.87
2018-08-10T00:06:00.676Z,18.80
2018-08-10T00:07:00.718Z,18.79
2018-08-10T00:08:00.745Z,18.87
2018-08-10T00:09:00.818Z,18.87
2018-08-10T00:10:00.849Z,18.80
2018-08-10T00:11:01.089Z,18.83
2018-08-10T00:12:00.928Z,18.91
2018-08-10T00:13:00.970Z,18.84
2018-08-10T00:14:01.026Z,18.84
2018-08-10T00:15:01.071Z,18.80
2018-08-10T00:16:01.098Z,18.79
2018-08-10T00:17:01.250Z,18.76
2018-08-10T00:18:01.189Z,18.70
2018-08-10T00:19:01.221Z,18.72
2018-08-10T00:20:01.260Z,18.77
2018-08-10T00:21:01.335Z,18.73
2018-08-10T00:22:01.362Z,18.72
2018-08-10T00:23:01.406Z,18.64
2018-08-10T00:24:01.441Z,18.72
2018-08-10T00:25:01.498Z,18.54
2018-08-10T00:26:01.536Z,18.64
2018-08-10T00:27:01.586Z,18.65
2018-08-10T00:28:01.604Z,18.57
2018-08-10T00:29:01.665Z,18.54
2018-08-10T00:30:01.704Z,18.57
2018-08-10T00:31:01.767Z,18.55
2018-08-10T00:32:01.822Z,18.46
2018-08-10T00:33:01.992Z,18.47
2018-08-10T00:34:01.866Z,18.52
2018-08-10T00:35:01.939Z,18.52
2018-08-10T00:36:01.986Z,18.55
2018-08-10T00:37:02.007Z,18.49
2018-08-10T00:38:02.067Z,18.54
2018-08-10T00:39:02.085Z,18.43
2018-08-10T00:40:02.245Z,18.40
2018-08-10T00:41:02.187Z,18.42
2018-08-10T00:42:02.229Z,18.42
2018-08-10T00:43:02.273Z,18.39
2018-08-10T00:44:02.313Z,18.39
2018-08-10T00:45:02.378Z,18.31
2018-08-10T00:46:02.516Z,18.40
2018-08-10T00:47:02.477Z,18.42
2018-08-10T00:48:02.530Z,18.37
2018-08-10T00:49:02.522Z,18.33
2018-08-10T00:50:02.608Z,18.40
2018-08-10T00:51:02.618Z,18.40
2018-08-10T00:52:02.669Z,18.42
2018-08-10T00:53:02.701Z,18.43
2018-08-10T00:54:02.793Z,18.36
2018-08-10T00:55:02.827Z,18.39
2018-08-10T00:56:02.844Z,18.39
2018-08-10T00:57:02.882Z,18.33
2018-08-10T00:58:03.044Z,18.31
2018-08-10T00:59:02.976Z,18.28
2018-08-10T01:00:03.008Z,18.29
2018-08-10T01:01:03.063Z,18.29
2018-08-10T01:02:03.098Z,18.24
2018-08-10T01:03:03.144Z,18.22
2018-08-10T01:04:03.293Z,18.19
2018-08-10T01:05:03.245Z,18.22
2018-08-10T01:06:03.292Z,18.29
2018-08-10T01:07:03.313Z,18.27
2018-08-10T01:08:03.384Z,18.27
2018-08-10T01:09:03.404Z,18.21
2018-08-10T01:10:03.661Z,18.17
2018-08-10T01:11:03.502Z,18.15
2018-08-10T01:12:03.564Z,18.13
2018-08-10T01:13:03.587Z,18.12
2018-08-10T01:14:03.634Z,18.19
2018-08-10T01:15:03.670Z,18.07
2018-08-10T01:16:03.709Z,18.18
2018-08-10T01:17:03.775Z,18.12
2018-08-10T01:18:03.806Z,18.12
2018-08-10T01:19:03.871Z,18.00
2018-08-10T01:20:03.887Z,18.07
2018-08-10T01:21:04.067Z,18.06
2018-08-10T01:22:03.982Z,18.03
2018-08-10T01:23:04.014Z,18.00
2018-08-10T01:24:04.054Z,17.95
2018-08-10T01:25:04.114Z,18.02
2018-08-10T01:26:04.135Z,17.97
2018-08-10T01:27:04.245Z,17.97
2018-08-10T01:28:04.236Z,17.94
2018-08-10T01:29:04.284Z,17.85
2018-08-10T01:30:04.313Z,17.81
2018-08-10T01:31:04.552Z,17.89
2018-08-10T01:32:04.397Z,17.78
2018-08-10T01:33:04.455Z,17.81
2018-08-10T01:34:04.517Z,17.79
2018-08-10T01:35:04.544Z,17.78
2018-08-10T01:36:04.794Z,17.73
2018-08-10T01:37:04.635Z,17.71
2018-08-10T01:38:04.652Z,17.69
2018-08-10T01:39:04.718Z,17.63
2018-08-10T01:40:04.758Z,17.63
2018-08-10T01:41:04.801Z,17.66
2018-08-10T01:42:04.878Z,17.64
2018-08-10T01:43:05.078Z,17.59
2018-08-10T01:44:04.917Z,17.67
2018-08-10T01:45:04.946Z,17.62
2018-08-10T01:46:05.013Z,17.55
2018-08-10T01:47:05.085Z,17.54
2018-08-10T01:48:05.101Z,17.51
2018-08-10T01:49:05.337Z,17.47
2018-08-10T01:50:05.181Z,17.47
2018-08-10T01:51:05.218Z,17.43
2018-08-10T01:52:05.279Z,17.43
2018-08-10T01:53:05.296Z,17.41
2018-08-10T01:54:05.407Z,17.44
2018-08-10T01:55:05.594Z,17.44
2018-08-10T01:56:05.445Z,17.43
2018-08-10T01:57:05.495Z,17.44
2018-08-10T01:58:05.503Z,17.41
2018-08-10T01:59:05.569Z,17.36
2018-08-10T02:00:05.802Z,17.36
2018-08-10T02:01:05.856Z,17.36
2018-08-10T02:02:05.686Z,17.26
2018-08-10T02:03:05.734Z,17.20
2018-08-10T02:04:05.802Z,17.18
2018-08-10T02:05:05.802Z,17.25
2018-08-10T02:06:06.018Z,17.20
2018-08-10T02:07:06.115Z,17.14
2018-08-10T02:08:05.958Z,17.14
2018-08-10T02:09:05.962Z,17.17
2018-08-10T02:10:06.035Z,17.14
2018-08-10T02:11:06.065Z,17.08
2018-08-10T02:12:06.120Z,17.10
2018-08-10T02:13:06.161Z,17.11
2018-08-10T02:14:06.239Z,17.10
2018-08-10T02:15:06.236Z,17.07
2018-08-10T02:16:06.316Z,17.06
2018-08-10T02:17:06.545Z,16.98
2018-08-10T02:18:06.347Z,16.92
2018-08-10T02:19:06.464Z,16.95
2018-08-10T02:20:06.462Z,16.93
2018-08-10T02:21:06.488Z,16.89
2018-08-10T02:22:06.754Z,16.96
2018-08-10T02:23:06.569Z,16.86
2018-08-10T02:24:06.649Z,16.83
2018-08-10T02:25:06.671Z,16.90
2018-08-10T02:26:06.699Z,16.90
2018-08-10T02:27:06.907Z,16.81
2018-08-10T02:28:06.800Z,16.74
2018-08-10T02:29:06.891Z,16.65
2018-08-10T02:30:06.896Z,16.60
2018-08-10T02:31:06.899Z,16.62
2018-08-10T02:32:07.168Z,16.58
2018-08-10T02:33:07.009Z,16.56
2018-08-10T02:34:07.028Z,16.56
2018-08-10T02:35:07.089Z,16.55
2018-08-10T02:36:07.158Z,16.45
2018-08-10T02:37:07.393Z,16.48
2018-08-10T02:38:07.222Z,16.41
2018-08-10T02:39:07.264Z,16.38
2018-08-10T02:40:07.285Z,16.45
2018-08-10T02:41:07.387Z,16.41
2018-08-10T02:42:07.395Z,16.37
2018-08-10T02:43:07.573Z,16.27
2018-08-10T02:44:07.472Z,16.23
2018-08-10T02:45:07.530Z,16.27
2018-08-10T02:46:07.577Z,16.16
2018-08-10T02:47:07.599Z,16.18
2018-08-10T02:48:07.867Z,16.12
2018-08-10T02:49:07.668Z,16.12
2018-08-10T02:50:07.715Z,16.11
2018-08-10T02:51:07.766Z,16.07
2018-08-10T02:52:07.803Z,16.04
2018-08-10T02:53:07.826Z,16.04
2018-08-10T02:54:08.029Z,16.11
2018-08-10T02:55:07.942Z,16.00
2018-08-10T02:56:07.967Z,16.09
2018-08-10T02:57:08.021Z,16.11
2018-08-10T02:58:08.163Z,16.07
2018-08-10T02:59:08.127Z,16.06
2018-08-10T03:00:08.145Z,15.99
2018-08-10T03:01:08.162Z,16.04
2018-08-10T03:02:08.217Z,15.97
2018-08-10T03:03:08.276Z,15.97
2018-08-10T03:04:08.293Z,15.96
2018-08-10T03:05:08.487Z,15.85
2018-08-10T03:06:08.383Z,15.93
2018-08-10T03:07:08.429Z,15.81
2018-08-10T03:08:08.486Z,15.79
2018-08-10T03:09:08.498Z,15.74
2018-08-10T03:10:08.542Z,15.74
2018-08-10T03:11:08.585Z,15.72
2018-08-10T03:12:08.809Z,15.74
2018-08-10T03:13:08.665Z,15.63
2018-08-10T03:14:08.743Z,15.70
2018-08-10T03:15:08.750Z,15.64
2018-08-10T03:16:08.806Z,15.66
2018-08-10T03:17:08.828Z,15.63
2018-08-10T03:18:08.897Z,15.60
2018-08-10T03:19:08.932Z,15.64
2018-08-10T03:20:08.959Z,15.67
2018-08-10T03:21:09.014Z,15.68
2018-08-10T03:22:09.357Z,15.51
2018-08-10T03:23:09.074Z,15.51
2018-08-10T03:24:09.115Z,15.48
2018-08-10T03:25:09.178Z,15.51
2018-08-10T03:26:09.204Z,15.49
2018-08-10T03:27:09.307Z,15.43
2018-08-10T03:28:09.503Z,15.45
2018-08-10T03:29:09.345Z,15.42
2018-08-10T03:30:09.385Z,15.49
2018-08-10T03:31:09.403Z,15.31
2018-08-10T03:32:09.475Z,15.33
2018-08-10T03:33:09.512Z,15.26
2018-08-10T03:34:09.735Z,15.23
2018-08-10T03:35:09.625Z,15.23
2018-08-10T03:36:09.621Z,15.26
2018-08-10T03:37:09.703Z,15.30
2018-08-10T03:38:09.710Z,15.27
2018-08-10T03:39:09.736Z,15.24
2018-08-10T03:40:09.809Z,15.24
2018-08-10T03:41:09.848Z,15.27
2018-08-10T03:42:09.869Z,15.20
2018-08-10T03:43:09.942Z,15.21
2018-08-10T03:44:10.161Z,15.17
2018-08-10T03:45:09.994Z,15.19
2018-08-10T03:46:10.033Z,15.17
2018-08-10T03:47:10.063Z,15.05
2018-08-10T03:48:10.143Z,15.09
2018-08-10T03:49:10.300Z,15.05
2018-08-10T03:50:10.194Z,15.03
2018-08-10T03:51:10.230Z,14.99
2018-08-10T03:52:10.267Z,15.06
2018-08-10T03:53:10.332Z,15.02
2018-08-10T03:54:10.369Z,15.01
2018-08-10T03:55:10.517Z,15.05
2018-08-10T03:56:10.432Z,14.90
2018-08-10T03:57:10.464Z,14.94
2018-08-10T03:58:10.513Z,14.94
2018-08-10T03:59:10.583Z,14.86
2018-08-10T04:00:10.621Z,14.81
2018-08-10T04:01:10.785Z,14.86
2018-08-10T04:02:10.668Z,14.87
2018-08-10T04:03:10.771Z,14.78
2018-08-10T04:04:10.767Z,14.80
2018-08-10T04:05:10.838Z,14.83
2018-08-10T04:06:10.860Z,14.72
2018-08-10T04:07:10.891Z,14.72
2018-08-10T04:08:10.988Z,14.72
2018-08-10T04:09:10.950Z,14.67
2018-08-10T04:10:11.014Z,14.68
2018-08-10T04:11:11.239Z,14.61
2018-08-10T04:12:11.143Z,14.62
2018-08-10T04:13:11.145Z,14.64
2018-08-10T04:14:11.200Z,14.65
2018-08-10T04:15:11.200Z,14.67
2018-08-10T04:16:11.247Z,14.62
2018-08-10T04:17:11.535Z,14.60
2018-08-10T04:18:11.330Z,14.49
2018-08-10T04:19:11.392Z,14.54
2018-08-10T04:20:11.414Z,14.49
2018-08-10T04:21:11.449Z,14.35
2018-08-10T04:22:11.689Z,14.38
2018-08-10T04:23:11.573Z,14.37
2018-08-10T04:24:11.585Z,14.37
2018-08-10T04:25:11.622Z,14.34
2018-08-10T04:26:11.658Z,14.42
2018-08-10T04:27:11.708Z,14.31
2018-08-10T04:28:11.945Z,14.35
2018-08-10T04:29:11.784Z,14.34
2018-08-10T04:30:11.813Z,14.38
2018-08-10T04:31:11.871Z,14.28
2018-08-10T04:32:11.909Z,14.31
2018-08-10T04:33:11.923Z,14.24
2018-08-10T04:34:11.980Z,14.32
2018-08-10T04:35:11.994Z,14.24
2018-08-10T04:36:12.072Z,14.21
2018-08-10T04:37:12.103Z,14.19
2018-08-10T04:38:12.393Z,14.25
2018-08-10T04:39:12.165Z,14.20
2018-08-10T04:40:12.219Z,14.14
2018-08-10T04:41:12.256Z,14.24
2018-08-10T04:42:12.327Z,14.12
2018-08-10T04:43:12.334Z,14.12
2018-08-10T04:44:12.400Z,14.13
2018-08-10T04:45:12.427Z,14.10
2018-08-10T04:46:12.465Z,14.12
2018-08-10T04:47:12.512Z,14.17
2018-08-10T04:48:12.828Z,14.12
2018-08-10T04:49:12.585Z,14.09
2018-08-10T04:50:12.621Z,14.09
2018-08-10T04:51:12.678Z,14.06
2018-08-10T04:52:12.775Z,14.04
2018-08-10T04:53:12.739Z,14.01
2018-08-10T04:54:12.795Z,14.01
2018-08-10T04:55:12.922Z,13.87
2018-08-10T04:56:12.861Z,13.91
2018-08-10T04:57:12.917Z,13.89
2018-08-10T04:58:12.972Z,13.92
2018-08-10T04:59:13.022Z,13.88
2018-08-10T05:00:13.175Z,13.83
2018-08-10T05:01:13.065Z,13.91
2018-08-10T05:02:13.135Z,13.83
2018-08-10T05:03:13.165Z,13.84
2018-08-10T05:04:13.188Z,13.83
2018-08-10T05:05:13.292Z,13.73
2018-08-10T05:06:13.281Z,13.79
2018-08-10T05:07:13.508Z,13.79
2018-08-10T05:08:13.399Z,13.77
2018-08-10T05:09:13.399Z,13.80
2018-08-10T05:10:13.436Z,13.87
2018-08-10T05:11:13.487Z,13.67
2018-08-10T05:12:13.724Z,13.76
2018-08-10T05:13:13.535Z,13.69
2018-08-10T05:14:13.580Z,13.65
2018-08-10T05:15:13.645Z,13.71
2018-08-10T05:16:13.675Z,13.63
2018-08-10T05:17:13.706Z,13.61
2018-08-10T05:18:13.751Z,13.61
2018-08-10T05:19:13.789Z,13.61
2018-08-10T05:20:13.853Z,13.56
2018-08-10T05:21:13.893Z,13.52
2018-08-10T05:22:14.118Z,13.52
2018-08-10T05:23:13.959Z,13.54
2018-08-10T05:24:13.994Z,13.54
2018-08-10T05:25:14.090Z,13.51
2018-08-10T05:26:14.088Z,13.49
2018-08-10T05:27:14.313Z,13.55
2018-08-10T05:28:14.204Z,13.51
2018-08-10T05:29:14.201Z,13.44
2018-08-10T05:30:14.263Z,13.47
2018-08-10T05:31:14.246Z,13.43
2018-08-10T05:32:14.351Z,13.33
2018-08-10T05:33:14.570Z,13.37
2018-08-10T05:34:14.392Z,13.37
2018-08-10T05:35:14.432Z,13.36
2018-08-10T05:36:14.473Z,13.33
2018-08-10T05:37:14.555Z,13.32
2018-08-10T05:38:14.750Z,13.38
2018-08-10T05:39:14.617Z,13.38
2018-08-10T05:40:14.640Z,13.30
2018-08-10T05:41:14.671Z,13.29
2018-08-10T05:42:14.723Z,13.27
2018-08-10T05:43:14.754Z,13.30
2018-08-10T05:44:14.997Z,13.25
2018-08-10T05:45:14.851Z,13.29
2018-08-10T05:46:14.938Z,13.33
2018-08-10T05:47:14.945Z,13.36
2018-08-10T05:48:14.966Z,13.12
2018-08-10T05:49:14.981Z,13.14
2018-08-10T05:50:15.065Z,13.15
2018-08-10T05:51:15.049Z,13.04
2018-08-10T05:52:15.114Z,13.09
2018-08-10T05:53:15.132Z,13.17
2018-08-10T05:54:15.404Z,13.12
2018-08-10T05:55:15.236Z,13.06
2018-08-10T05:56:15.272Z,13.06
2018-08-10T05:57:15.316Z,13.04
2018-08-10T05:58:15.362Z,13.12
2018-08-10T05:59:15.616Z,12.97
2018-08-10T06:00:15.419Z,13.03
2018-08-10T06:01:15.449Z,12.95
2018-08-10T06:02:15.495Z,12.88
2018-08-10T06:03:15.527Z,12.85
2018-08-10T06:04:15.601Z,12.88
2018-08-10T06:05:15.834Z,12.87
2018-08-10T06:06:15.684Z,12.81
2018-08-10T06:07:15.707Z,12.79
2018-08-10T06:08:15.741Z,12.82
2018-08-10T06:09:15.772Z,12.85
2018-08-10T06:10:16.027Z,12.85
2018-08-10T06:11:15.838Z,12.84
2018-08-10T06:12:15.894Z,12.82
2018-08-10T06:13:16.006Z,12.82
2018-08-10T06:14:15.968Z,12.70
2018-08-10T06:15:16.006Z,12.75
2018-08-10T06:16:16.272Z,12.74
2018-08-10T06:17:16.092Z,12.77
2018-08-10T06:18:16.126Z,12.78
2018-08-10T06:19:16.188Z,12.78
2018-08-10T06:20:16.224Z,12.77
2018-08-10T06:21:16.276Z,12.75
2018-08-10T06:22:16.312Z,12.67
2018-08-10T06:23:16.341Z,12.67
2018-08-10T06:24:16.348Z,12.60
2018-08-10T06:25:16.439Z,12.60
2018-08-10T06:26:16.697Z,12.59
2018-08-10T06:27:16.707Z,12.59
2018-08-10T06:28:16.605Z,12.56
2018-08-10T06:29:16.613Z,12.57
2018-08-10T06:30:16.610Z,12.59
2018-08-10T06:31:16.689Z,12.54
2018-08-10T06:32:16.692Z,12.44
2018-08-10T06:33:17.022Z,12.54
2018-08-10T06:34:16.896Z,12.54
2018-08-10T06:35:16.818Z,12.42
2018-08-10T06:36:16.849Z,12.48
2018-08-10T06:37:16.898Z,12.49
2018-08-10T06:38:17.117Z,12.39
2018-08-10T06:39:16.945Z,12.48
2018-08-10T06:40:17.001Z,12.41
2018-08-10T06:41:17.055Z,12.52
2018-08-10T06:42:17.093Z,12.51
2018-08-10T06:43:17.122Z,12.44
2018-08-10T06:44:17.416Z,12.56
2018-08-10T06:45:17.307Z,12.39
2018-08-10T06:46:17.215Z,12.46
2018-08-10T06:47:17.283Z,12.37
2018-08-10T06:48:17.299Z,12.44
2018-08-10T06:49:17.388Z,12.33
2018-08-10T06:50:17.638Z,12.31
2018-08-10T06:51:17.467Z,12.24
2018-08-10T06:52:17.475Z,12.29
2018-08-10T06:53:17.527Z,12.26
2018-08-10T06:54:17.564Z,12.21
2018-08-10T06:55:17.609Z,12.20
2018-08-10T06:56:17.885Z,12.26
2018-08-10T06:57:17.668Z,12.19
2018-08-10T06:58:17.704Z,12.23
2018-08-10T06:59:17.738Z,12.23
2018-08-10T07:00:17.811Z,12.23
2018-08-10T07:01:17.840Z,12.16
2018-08-10T07:02:18.082Z,12.21
2018-08-10T07:03:17.917Z,12.24
2018-08-10T07:04:17.991Z,12.12
2018-08-10T07:05:17.986Z,12.20
2018-08-10T07:06:18.015Z,12.26
2018-08-10T07:07:18.062Z,12.19
2018-08-10T07:08:18.316Z,12.19
2018-08-10T07:09:18.147Z,12.24
2018-08-10T07:10:18.197Z,12.19
2018-08-10T07:11:18.223Z,12.20
2018-08-10T07:12:18.251Z,12.20
2018-08-10T07:13:18.433Z,12.23
2018-08-10T07:14:18.336Z,12.12
2018-08-10T07:15:18.365Z,12.16
2018-08-10T07:16:18.408Z,12.11
2018-08-10T07:17:18.441Z,12.13
2018-08-10T07:18:18.724Z,12.15
2018-08-10T07:19:18.522Z,12.04
2018-08-10T07:20:18.568Z,12.08
2018-08-10T07:21:18.611Z,12.12
2018-08-10T07:22:18.670Z,12.08
2018-08-10T07:23:18.923Z,12.06
2018-08-10T07:24:18.730Z,12.12
2018-08-10T07:25:18.789Z,12.04
2018-08-10T07:26:18.823Z,12.05
2018-08-10T07:27:19.031Z,12.16
2018-08-10T07:28:18.879Z,12.13
2018-08-10T07:29:19.114Z,12.05
2018-08-10T07:30:18.963Z,12.13
2018-08-10T07:31:18.987Z,12.02
2018-08-10T07:32:19.088Z,12.02
2018-08-10T07:33:19.068Z,11.97
2018-08-10T07:34:19.167Z,11.99
2018-08-10T07:35:19.355Z,12.05
2018-08-10T07:36:19.180Z,12.01
2018-08-10T07:37:19.233Z,11.99
2018-08-10T07:38:19.243Z,12.01
2018-08-10T07:39:19.294Z,11.86
2018-08-10T07:40:19.351Z,11.89
2018-08-10T07:41:19.386Z,11.89
2018-08-10T07:42:19.451Z,11.99
2018-08-10T07:43:19.445Z,11.89
2018-08-10T07:44:19.517Z,11.86
2018-08-10T07:45:19.691Z,11.80
2018-08-10T07:46:19.796Z,11.78
2018-08-10T07:47:19.641Z,11.77
2018-08-10T07:48:19.655Z,11.83
2018-08-10T07:49:19.712Z,11.78
2018-08-10T07:50:19.719Z,11.78
2018-08-10T07:51:19.755Z,11.75
2018-08-10T07:52:20.127Z,11.77
2018-08-10T07:53:19.877Z,11.74
2018-08-10T07:54:19.888Z,11.77
2018-08-10T07:55:19.920Z,11.75
2018-08-10T07:56:19.968Z,11.74
2018-08-10T07:57:20.258Z,11.74
2018-08-10T07:58:20.049Z,11.72
2018-08-10T07:59:20.068Z,11.65
2018-08-10T08:00:20.102Z,11.67
2018-08-10T08:01:20.162Z,11.67
2018-08-10T08:02:20.219Z,11.59
2018-08-10T08:03:20.292Z,11.64
2018-08-10T08:04:20.270Z,11.64
2018-08-10T08:05:20.308Z,11.52
2018-08-10T08:06:20.347Z,11.50
2018-08-10T08:07:20.385Z,11.52
2018-08-10T08:08:20.640Z,11.54
2018-08-10T08:09:20.676Z,11.47
2018-08-10T08:10:20.525Z,11.47
2018-08-10T08:11:20.525Z,11.52
2018-08-10T08:12:20.581Z,11.50
2018-08-10T08:13:20.620Z,11.52
2018-08-10T08:14:20.672Z,11.52
2018-08-10T08:15:20.899Z,11.46
2018-08-10T08:16:20.710Z,11.41
2018-08-10T08:17:20.757Z,11.39
2018-08-10T08:18:20.823Z,11.46
2018-08-10T08:19:20.880Z,11.41
2018-08-10T08:20:20.905Z,11.41
2018-08-10T08:21:21.072Z,11.41
2018-08-10T08:22:20.948Z,11.38
2018-08-10T08:23:20.992Z,11.36
2018-08-10T08:24:21.053Z,11.43
2018-08-10T08:25:21.076Z,11.35
2018-08-10T08:26:21.166Z,11.43
2018-08-10T08:27:21.390Z,11.38
2018-08-10T08:28:21.186Z,11.29
2018-08-10T08:29:21.234Z,11.36
2018-08-10T08:30:21.263Z,11.38
2018-08-10T08:31:21.323Z,11.36
2018-08-10T08:32:21.580Z,11.34
2018-08-10T08:33:21.397Z,11.21
2018-08-10T08:34:21.458Z,11.29
2018-08-10T08:35:21.474Z,11.29
2018-08-10T08:36:21.480Z,11.32
2018-08-10T08:37:21.530Z,11.29
2018-08-10T08:38:21.644Z,11.28
2018-08-10T08:39:21.613Z,11.32
2018-08-10T08:40:21.659Z,11.31
2018-08-10T08:41:21.695Z,11.31
2018-08-10T08:42:21.741Z,11.39
2018-08-10T08:43:21.985Z,11.38
2018-08-10T08:44:21.834Z,11.31
2018-08-10T08:45:22.045Z,11.34
2018-08-10T08:46:22.093Z,11.32
2018-08-10T08:47:21.937Z,11.32
2018-08-10T08:48:21.973Z,11.31
2018-08-10T08:49:22.000Z,11.34
2018-08-10T08:50:22.086Z,11.29
2018-08-10T08:51:22.071Z,11.28
2018-08-10T08:52:22.143Z,11.28
2018-08-10T08:53:22.309Z,11.34
2018-08-10T08:54:22.194Z,11.14
2018-08-10T08:55:22.225Z,11.11
2018-08-10T08:56:22.268Z,11.10
2018-08-10T08:57:22.442Z,11.09
2018-08-10T08:58:22.346Z,11.03
2018-08-10T08:59:22.581Z,11.01
2018-08-10T09:00:22.469Z,11.11
2018-08-10T09:01:22.482Z,11.11
2018-08-10T09:02:22.547Z,11.14
2018-08-10T09:03:22.567Z,11.09
2018-08-10T09:04:22.592Z,11.10
2018-08-10T09:05:22.794Z,11.10
2018-08-10T09:06:22.651Z,11.09
2018-08-10T09:07:22.772Z,11.14
2018-08-10T09:08:22.727Z,11.11
2018-08-10T09:09:22.765Z,11.07
2018-08-10T09:10:22.811Z,11.09
2018-08-10T09:11:22.841Z,11.07
2018-08-10T09:12:22.880Z,10.98
2018-08-10T09:13:22.914Z,11.06
2018-08-10T09:14:23.034Z,11.07
2018-08-10T09:15:23.218Z,11.03
2018-08-10T09:16:23.030Z,11.03
2018-08-10T09:17:23.129Z,11.11
2018-08-10T09:18:23.112Z,11.03
2018-08-10T09:19:23.153Z,11.03
2018-08-10T09:20:23.442Z,11.09
2018-08-10T09:21:23.227Z,11.09
2018-08-10T09:22:23.271Z,10.96
2018-08-10T09:23:23.320Z,11.01
2018-08-10T09:24:23.377Z,11.06
2018-08-10T09:25:23.399Z,11.06
2018-08-10T09:26:23.698Z,10.95
2018-08-10T09:27:23.480Z,10.86
2018-08-10T09:28:23.490Z,10.89
2018-08-10T09:29:23.546Z,10.81
2018-08-10T09:30:23.549Z,10.92
2018-08-10T09:31:23.760Z,10.84
2018-08-10T09:32:23.631Z,10.81
2018-08-10T09:33:23.688Z,10.88
2018-08-10T09:34:23.780Z,10.81
2018-08-10T09:35:23.753Z,10.86
2018-08-10T09:36:23.772Z,10.84
2018-08-10T09:37:24.020Z,10.78
2018-08-10T09:38:23.857Z,10.81
2018-08-10T09:39:23.916Z,10.81
2018-08-10T09:40:23.983Z,10.84
2018-08-10T09:41:23.985Z,10.89
2018-08-10T09:42:24.035Z,10.92
2018-08-10T09:43:24.063Z,10.83
2018-08-10T09:44:24.100Z,10.96
2018-08-10T09:45:24.254Z,10.89
2018-08-10T09:46:24.173Z,10.91
2018-08-10T09:47:24.199Z,10.86
2018-08-10T09:48:24.438Z,10.95
2018-08-10T09:49:24.301Z,10.95
2018-08-10T09:50:24.340Z,10.96
2018-08-10T09:51:24.353Z,10.91
2018-08-10T09:52:24.383Z,10.86
2018-08-10T09:53:24.671Z,10.96
2018-08-10T09:54:24.482Z,10.88
2018-08-10T09:55:24.503Z,10.91
2018-08-10T09:56:24.558Z,10.91
2018-08-10T09:57:24.605Z,10.84
2018-08-10T09:58:24.636Z,10.89
2018-08-10T09:59:24.883Z,10.92
2018-08-10T10:00:24.690Z,10.89
2018-08-10T10:01:24.708Z,10.81
2018-08-10T10:02:24.791Z,10.78
2018-08-10T10:03:24.841Z,10.89
2018-08-10T10:04:24.860Z,11.02
2018-08-10T10:05:24.915Z,10.99
2018-08-10T10:06:24.913Z,11.07
2018-08-10T10:07:24.962Z,11.16
2018-08-10T10:08:25.004Z,11.39
2018-08-10T10:09:25.045Z,11.53
2018-08-10T10:10:25.300Z,11.64
2018-08-10T10:11:25.138Z,11.61
2018-08-10T10:12:25.205Z,11.70
2018-08-10T10:13:25.207Z,11.59
2018-08-10T10:14:25.289Z,11.72
2018-08-10T10:15:25.272Z,11.68
2018-08-10T10:16:25.295Z,11.65
2018-08-10T10:17:25.399Z,11.57
2018-08-10T10:18:25.439Z,11.52
2018-08-10T10:19:25.407Z,11.53
2018-08-10T10:20:25.720Z,11.44
2018-08-10T10:21:25.502Z,11.46
2018-08-10T10:22:25.548Z,11.39
2018-08-10T10:23:25.577Z,11.52
2018-08-10T10:24:25.665Z,11.53
2018-08-10T10:25:25.668Z,11.53
2018-08-10T10:26:25.681Z,11.56
2018-08-10T10:27:25.739Z,11.59
2018-08-10T10:28:25.810Z,11.64
2018-08-10T10:29:25.797Z,11.61
2018-08-10T10:30:25.869Z,11.74
2018-08-10T10:31:25.890Z,11.74
2018-08-10T10:32:25.940Z,11.70
2018-08-10T10:33:25.971Z,11.82
2018-08-10T10:34:26.018Z,11.78
2018-08-10T10:35:26.073Z,12.11
2018-08-10T10:36:26.237Z,12.39
2018-08-10T10:37:26.134Z,12.49
2018-08-10T10:38:26.202Z,12.57
2018-08-10T10:39:26.220Z,12.56
2018-08-10T10:40:26.281Z,12.42
2018-08-10T10:41:26.318Z,12.62
2018-08-10T10:42:26.339Z,12.78
2018-08-10T10:43:26.376Z,12.71
2018-08-10T10:44:26.400Z,12.81
2018-08-10T10:45:26.453Z,13.20
2018-08-10T10:46:26.667Z,13.62
2018-08-10T10:47:26.804Z,13.80
2018-08-10T10:48:26.551Z,14.20
2018-08-10T10:49:26.610Z,14.34
2018-08-10T10:50:26.677Z,14.75
2018-08-10T10:51:26.699Z,14.37
2018-08-10T10:52:26.752Z,14.94
2018-08-10T10:53:26.775Z,15.15
2018-08-10T10:54:26.846Z,15.19
2018-08-10T10:55:26.909Z,15.28
2018-08-10T10:56:26.960Z,15.21
2018-08-10T10:57:27.136Z,15.24
2018-08-10T10:58:26.987Z,15.31
2018-08-10T10:59:27.044Z,15.13
2018-08-10T11:00:27.039Z,15.19
2018-08-10T11:01:27.130Z,14.86
2018-08-10T11:02:27.154Z,14.86
2018-08-10T11:03:27.199Z,14.64
2018-08-10T11:04:27.241Z,14.60
2018-08-10T11:05:27.279Z,14.93
2018-08-10T11:06:27.369Z,15.13
2018-08-10T11:07:27.351Z,15.13
2018-08-10T11:08:27.418Z,15.46
2018-08-10T11:09:27.432Z,15.79
2018-08-10T11:10:27.508Z,16.00
2018-08-10T11:11:27.578Z,15.86
2018-08-10T11:12:27.794Z,16.07
2018-08-10T11:13:27.613Z,16.09
2018-08-10T11:14:27.730Z,15.92
2018-08-10T11:15:27.766Z,15.89
2018-08-10T11:16:27.775Z,15.81
2018-08-10T11:17:27.797Z,15.81
2018-08-10T11:18:27.846Z,15.33
2018-08-10T11:19:27.889Z,15.54
2018-08-10T11:20:27.961Z,15.96
2018-08-10T11:21:27.986Z,15.93
2018-08-10T11:22:28.041Z,16.03
2018-08-10T11:23:28.084Z,15.92
2018-08-10T11:24:28.130Z,16.67
2018-08-10T11:25:28.532Z,17.08
2018-08-10T11:26:28.227Z,16.96
2018-08-10T11:27:28.249Z,16.59
2018-08-10T11:28:28.275Z,16.16
2018-08-10T11:29:28.318Z,16.01
2018-08-10T11:30:28.433Z,16.56
2018-08-10T11:31:28.669Z,16.86
2018-08-10T11:32:28.488Z,17.07
2018-08-10T11:33:28.532Z,17.23
2018-08-10T11:34:28.548Z,17.84
2018-08-10T11:35:28.586Z,17.63
2018-08-10T11:36:28.660Z,17.40
2018-08-10T11:37:28.747Z,17.22
2018-08-10T11:38:28.738Z,16.99
2018-08-10T11:39:28.771Z,16.73
2018-08-10T11:40:28.851Z,16.37
2018-08-10T11:41:29.192Z,15.88
2018-08-10T11:42:28.951Z,15.79
2018-08-10T11:43:29.003Z,15.72
2018-08-10T11:44:29.037Z,15.96
2018-08-10T11:45:29.052Z,16.53
2018-08-10T11:46:29.181Z,16.98
2018-08-10T11:47:29.361Z,16.83
2018-08-10T11:48:29.239Z,16.85
2018-08-10T11:49:29.271Z,17.03
2018-08-10T11:50:29.307Z,17.71
2018-08-10T11:51:29.383Z,18.39
2018-08-10T11:52:29.459Z,18.74
2018-08-10T11:53:29.646Z,18.43
2018-08-10T11:54:29.501Z,18.06
2018-08-10T11:55:29.526Z,17.78
2018-08-10T11:56:29.646Z,18.06
2018-08-10T11:57:29.716Z,18.21
2018-08-10T11:58:29.882Z,18.84
2018-08-10T11:59:29.872Z,18.90
2018-08-10T12:00:29.769Z,19.08
2018-08-10T12:01:30.069Z,18.87
2018-08-10T12:02:29.880Z,18.87
2018-08-10T12:03:29.897Z,19.02
2018-08-10T12:04:29.994Z,18.84
2018-08-10T12:05:30.239Z,18.76
2018-08-10T12:06:30.058Z,19.47
2018-08-10T12:07:30.102Z,19.76
2018-08-10T12:08:30.149Z,19.68
2018-08-10T12:09:30.236Z,19.63
2018-08-10T12:10:30.260Z,20.16
2018-08-10T12:11:30.331Z,20.24
2018-08-10T12:12:30.394Z,19.69
2018-08-10T12:13:30.426Z,19.39
2018-08-10T12:14:30.444Z,18.86
2018-08-10T12:15:30.494Z,18.58
2018-08-10T12:16:30.554Z,18.83
2018-08-10T12:17:30.816Z,18.83
2018-08-10T12:18:30.639Z,18.67
2018-08-10T12:19:30.677Z,19.10
2018-08-10T12:20:30.742Z,19.38
2018-08-10T12:21:30.795Z,19.33
2018-08-10T12:22:30.875Z,19.47
2018-08-10T12:23:31.081Z,19.90
2018-08-10T12:24:30.942Z,19.86
2018-08-10T12:25:31.008Z,19.80
2018-08-10T12:26:31.017Z,19.69
2018-08-10T12:27:31.106Z,19.53
2018-08-10T12:28:31.140Z,19.68
2018-08-10T12:29:31.156Z,20.10
2018-08-10T12:30:31.209Z,20.74
2018-08-10T12:31:31.303Z,21.19
2018-08-10T12:32:31.336Z,20.93
2018-08-10T12:33:31.796Z,20.96
2018-08-10T12:34:31.429Z,20.91
2018-08-10T12:35:31.540Z,21.36
2018-08-10T12:36:31.507Z,21.46
2018-08-10T12:37:31.590Z,21.44
2018-08-10T12:38:31.844Z,21.53
2018-08-10T12:39:31.689Z,21.50
2018-08-10T12:40:31.721Z,21.50
2018-08-10T12:41:31.802Z,21.48
2018-08-10T12:42:31.836Z,21.04
2018-08-10T12:43:32.092Z,20.98
2018-08-10T12:44:31.942Z,21.42
2018-08-10T12:45:31.978Z,21.98
2018-08-10T12:46:32.140Z,22.23
2018-08-10T12:47:32.068Z,22.56
2018-08-10T12:48:32.138Z,22.68
2018-08-10T12:49:32.376Z,21.79
2018-08-10T12:50:32.442Z,21.53
2018-08-10T12:51:32.289Z,21.51
2018-08-10T12:52:32.344Z,21.16